createdAt,value
2023-05-15T00:02:15.803Z,54.07
2023-05-15T00:05:22.306Z,54.09
2023-05-15T00:08:29.467Z,54.22
2023-05-15T00:11:35.806Z,54.09
2023-05-15T00:14:41.233Z,53.97
2023-05-15T00:17:47.722Z,53.62
2023-05-15T00:20:53.010Z,53.20
2023-05-15T00:24:00.846Z,52.76
2023-05-15T00:27:06.843Z,53.13
2023-05-15T00:30:12.637Z,53.57
2023-05-15T00:33:17.301Z,53.44
2023-05-15T00:36:24.769Z,53.66
2023-05-15T00:39:29.317Z,53.30
2023-05-15T00:42:34.390Z,53.16
2023-05-15T00:45:40.289Z,52.88
2023-05-15T00:48:46.756Z,52.68
2023-05-15T00:51:45.213Z,52.90
2023-05-15T00:54:40.021Z,52.89
2023-05-15T00:57:45.909Z,52.88
2023-05-15T01:00:50.945Z,53.18
2023-05-15T01:03:56.373Z,53.18
2023-05-15T01:07:02.370Z,53.38
2023-05-15T01:10:07.724Z,53.35
2023-05-15T01:13:13.757Z,53.60
2023-05-15T01:16:14.065Z,54.15
2023-05-15T01:19:06.973Z,56.08
2023-05-15T01:22:40.431Z,57.02
2023-05-15T01:26:00.573Z,57.34
2023-05-15T01:29:12.263Z,56.69
2023-05-15T01:32:26.178Z,56.58
2023-05-15T01:36:07.130Z,56.51
2023-05-15T01:39:14.354Z,56.19
2023-05-15T01:42:29.067Z,55.94
2023-05-15T01:45:33.741Z,56.12
2023-05-15T01:48:39.188Z,56.42
2023-05-15T01:51:45.008Z,56.64
2023-05-15T01:54:50.501Z,56.37
2023-05-15T01:57:56.430Z,56.45
2023-05-15T02:01:02.178Z,56.35
2023-05-15T02:04:07.492Z,56.05
2023-05-15T02:07:12.852Z,55.16
2023-05-15T02:10:18.724Z,54.33
2023-05-15T02:13:25.693Z,54.46
2023-05-15T02:16:31.467Z,54.53
2023-05-15T02:19:38.109Z,54.01
2023-05-15T02:22:43.457Z,53.71
2023-05-15T02:26:12.586Z,53.35
2023-05-15T02:29:33.436Z,52.64
2023-05-15T02:33:18.220Z,51.40
2023-05-15T02:36:25.433Z,50.39
2023-05-15T02:39:31.968Z,49.00
2023-05-15T02:42:38.338Z,48.10
2023-05-15T02:45:43.841Z,47.21
2023-05-15T02:48:52.345Z,46.13
2023-05-15T02:51:57.802Z,45.39
2023-05-15T02:55:03.102Z,44.62
2023-05-15T02:58:07.806Z,43.49
2023-05-15T03:01:14.216Z,42.75
2023-05-15T03:04:20.313Z,42.35
2023-05-15T03:07:25.766Z,42.17
2023-05-15T03:10:31.547Z,41.78
2023-05-15T03:13:36.530Z,41.42
2023-05-15T03:16:44.101Z,41.15
2023-05-15T03:19:49.670Z,40.55
2023-05-15T03:22:56.157Z,40.17
2023-05-15T03:26:02.047Z,39.85
2023-05-15T03:29:07.405Z,39.54
2023-05-15T03:32:14.182Z,39.00
2023-05-15T03:35:20.704Z,38.54
2023-05-15T03:38:26.283Z,38.40
2023-05-15T03:41:34.812Z,38.08
2023-05-15T03:44:40.927Z,37.85
2023-05-15T03:47:46.653Z,37.69
2023-05-15T03:50:53.398Z,37.27
2023-05-15T03:54:00.823Z,37.00
2023-05-15T03:57:07.019Z,36.90
2023-05-15T04:00:16.432Z,36.88
2023-05-15T04:03:22.640Z,37.99
2023-05-15T04:06:29.939Z,37.67
2023-05-15T04:09:35.816Z,37.61
2023-05-15T04:12:41.019Z,37.71
2023-05-15T04:15:47.250Z,36.97
2023-05-15T04:18:53.733Z,37.07
2023-05-15T04:21:59.307Z,37.56
2023-05-15T04:25:04.638Z,37.07
2023-05-15T04:28:10.578Z,36.93
2023-05-15T04:31:15.337Z,36.79
2023-05-15T04:34:20.893Z,36.83
2023-05-15T04:37:26.580Z,36.70
2023-05-15T04:40:31.462Z,36.19
2023-05-15T04:43:39.345Z,36.45
2023-05-15T04:46:46.624Z,35.82
2023-05-15T04:49:51.603Z,35.75
2023-05-15T04:52:58.290Z,35.55
2023-05-15T04:56:04.864Z,35.04
2023-05-15T04:59:10.070Z,34.08
2023-05-15T05:02:15.938Z,33.54
2023-05-15T05:05:23.404Z,33.47
2023-05-15T05:08:22.936Z,33.80
2023-05-15T05:11:28.197Z,33.08
2023-05-15T05:14:33.881Z,33.10
2023-05-15T05:17:40.091Z,33.15
2023-05-15T05:20:45.646Z,32.52
2023-05-15T05:23:50.954Z,32.81
2023-05-15T05:27:00.339Z,32.55
2023-05-15T05:30:05.584Z,32.10
2023-05-15T05:33:12.040Z,32.23
2023-05-15T05:36:17.863Z,32.05
2023-05-15T05:39:23.927Z,31.23
2023-05-15T05:42:33.896Z,31.09
2023-05-15T05:45:40.714Z,29.33
2023-05-15T05:48:46.897Z,28.74
2023-05-15T05:51:54.143Z,28.59
2023-05-15T05:54:58.844Z,27.82
2023-05-15T05:58:08.666Z,27.38
2023-05-15T06:01:13.043Z,27.75
2023-05-15T06:04:18.882Z,27.28
2023-05-15T06:07:24.341Z,27.22
2023-05-15T06:10:29.382Z,27.45
2023-05-15T06:13:36.302Z,27.61
2023-05-15T06:16:41.904Z,28.53
2023-05-15T06:19:49.152Z,28.59
2023-05-15T06:22:56.358Z,28.26
2023-05-15T06:26:01.886Z,27.99
2023-05-15T06:29:08.278Z,27.71
2023-05-15T06:32:14.169Z,27.15
2023-05-15T06:35:20.556Z,26.84
2023-05-15T06:38:25.964Z,26.59
2023-05-15T06:41:30.909Z,26.73
2023-05-15T06:44:39.844Z,26.31
2023-05-15T06:47:46.787Z,27.41
2023-05-15T06:50:52.532Z,28.11
2023-05-15T06:53:51.835Z,27.43
2023-05-15T06:56:58.774Z,27.22
2023-05-15T07:00:03.203Z,28.12
2023-05-15T07:03:08.381Z,25.92
2023-05-15T07:06:15.053Z,25.43
2023-05-15T07:09:22.481Z,25.57
2023-05-15T07:12:29.463Z,26.02
2023-05-15T07:15:37.621Z,25.94
2023-05-15T07:18:44.275Z,26.94
2023-05-15T07:21:53.223Z,26.56
2023-05-15T07:24:58.950Z,26.53
2023-05-15T07:28:05.733Z,24.72
2023-05-15T07:31:11.335Z,24.89
2023-05-15T07:34:17.457Z,24.95
2023-05-15T07:37:24.375Z,26.30
2023-05-15T07:40:32.407Z,25.76
2023-05-15T07:43:39.106Z,25.57
2023-05-15T07:46:46.222Z,25.54
2023-05-15T07:49:52.381Z,24.81
2023-05-15T07:52:57.723Z,24.43
2023-05-15T07:55:56.876Z,22.37
2023-05-15T07:59:02.437Z,23.41
2023-05-15T08:02:10.608Z,23.73
2023-05-15T08:05:17.373Z,22.48
2023-05-15T08:08:22.846Z,22.06
2023-05-15T08:11:29.320Z,21.67
2023-05-15T08:14:34.794Z,23.05
2023-05-15T08:17:41.668Z,23.65
2023-05-15T08:20:47.510Z,23.48
2023-05-15T08:23:54.429Z,22.63
2023-05-15T08:26:54.062Z,22.42
2023-05-15T08:29:59.721Z,21.83
2023-05-15T08:33:05.828Z,22.33
2023-05-15T08:36:10.847Z,23.20
2023-05-15T08:39:16.445Z,23.36
2023-05-15T08:42:41.158Z,21.71
2023-05-15T08:45:47.432Z,22.45
2023-05-15T08:48:53.808Z,22.29
2023-05-15T08:51:59.611Z,21.00
2023-05-15T08:55:04.838Z,22.19
2023-05-15T08:58:11.386Z,24.05
2023-05-15T09:01:17.552Z,22.93
2023-05-15T09:04:22.690Z,22.24
2023-05-15T09:07:30.349Z,20.58
2023-05-15T09:10:36.614Z,21.13
2023-05-15T09:13:43.049Z,20.29
2023-05-15T09:16:48.632Z,19.99
2023-05-15T09:19:56.224Z,21.19
2023-05-15T09:23:02.144Z,22.26
2023-05-15T09:26:07.576Z,20.45
2023-05-15T09:29:18.350Z,21.20
2023-05-15T09:32:25.076Z,21.90
2023-05-15T09:35:52.391Z,21.51
2023-05-15T09:38:59.014Z,20.94
2023-05-15T09:42:04.886Z,21.75
2023-05-15T09:45:12.750Z,21.13
2023-05-15T09:48:21.537Z,21.77
2023-05-15T09:51:32.480Z,22.18
2023-05-15T09:54:38.332Z,20.51
2023-05-15T09:57:43.951Z,20.92
2023-05-15T10:00:50.431Z,20.83
2023-05-15T10:03:56.919Z,21.46
2023-05-15T10:07:02.308Z,21.15
2023-05-15T10:10:08.818Z,20.43
2023-05-15T10:13:14.910Z,19.90
2023-05-15T10:16:27.363Z,20.04
2023-05-15T10:19:44.082Z,19.94
2023-05-15T10:22:44.896Z,19.45
2023-05-15T10:25:59.357Z,19.38
2023-05-15T10:29:04.632Z,19.37
2023-05-15T10:32:10.500Z,18.63
2023-05-15T10:35:16.057Z,18.36
2023-05-15T10:38:21.436Z,18.44
2023-05-15T10:41:27.642Z,18.05
2023-05-15T10:44:33.142Z,17.86
2023-05-15T10:47:39.448Z,17.50
2023-05-15T10:50:41.625Z,17.83
2023-05-15T10:53:47.368Z,17.42
2023-05-15T10:56:54.206Z,17.84
2023-05-15T10:59:59.980Z,17.54
2023-05-15T11:03:07.517Z,19.00
2023-05-15T11:06:25.761Z,18.06
2023-05-15T11:09:49.472Z,17.13
2023-05-15T11:13:12.941Z,16.34
2023-05-15T11:16:18.252Z,16.60
2023-05-15T11:19:53.530Z,16.74
2023-05-15T11:22:52.592Z,17.20
2023-05-15T11:25:58.273Z,17.29
2023-05-15T11:29:03.996Z,17.41
2023-05-15T11:32:10.761Z,17.91
2023-05-15T11:35:16.212Z,17.91
2023-05-15T11:38:32.509Z,17.24
2023-05-15T11:41:38.025Z,16.99
2023-05-15T11:44:42.963Z,16.28
2023-05-15T11:47:41.139Z,16.78
2023-05-15T11:50:48.430Z,17.13
2023-05-15T11:53:54.455Z,17.81
2023-05-15T11:57:00.214Z,18.23
2023-05-15T12:00:09.944Z,18.72
2023-05-15T12:03:14.951Z,19.00
2023-05-15T12:06:21.664Z,19.49
2023-05-15T12:09:33.370Z,19.52
2023-05-15T12:12:38.883Z,19.56
2023-05-15T12:15:44.566Z,19.83
2023-05-15T12:18:50.666Z,18.90
2023-05-15T12:22:01.915Z,18.46
2023-05-15T12:25:00.897Z,18.17
2023-05-15T12:28:09.061Z,18.52
2023-05-15T12:31:14.775Z,18.44
2023-05-15T12:34:20.734Z,18.31
2023-05-15T12:37:29.686Z,18.19
2023-05-15T12:40:35.962Z,18.57
2023-05-15T12:43:41.976Z,18.35
2023-05-15T12:46:47.874Z,17.39
2023-05-15T12:49:56.457Z,17.87
2023-05-15T12:53:12.051Z,18.13
2023-05-15T12:56:17.529Z,18.88
2023-05-15T12:59:25.471Z,18.51
2023-05-15T13:02:34.315Z,19.45
2023-05-15T13:05:46.012Z,19.97
2023-05-15T13:08:57.383Z,19.05
2023-05-15T13:12:02.476Z,19.22
2023-05-15T13:15:08.059Z,19.41
2023-05-15T13:18:26.711Z,19.35
2023-05-15T13:21:32.231Z,19.87
2023-05-15T13:24:38.142Z,19.65
2023-05-15T13:27:44.155Z,19.73
2023-05-15T13:30:50.592Z,19.53
2023-05-15T13:33:56.828Z,19.63
2023-05-15T13:37:03.433Z,19.56
2023-05-15T13:40:08.720Z,19.78
2023-05-15T13:43:14.644Z,19.44
2023-05-15T13:46:20.568Z,19.74
2023-05-15T13:49:28.119Z,20.74
2023-05-15T13:52:33.638Z,20.23
2023-05-15T13:55:41.039Z,20.61
2023-05-15T13:58:47.262Z,20.95
2023-05-15T14:01:53.026Z,21.33
2023-05-15T14:04:58.180Z,21.26
2023-05-15T14:08:05.988Z,21.28
2023-05-15T14:11:10.844Z,20.93
2023-05-15T14:14:16.948Z,21.51
2023-05-15T14:17:23.686Z,21.66
2023-05-15T14:20:29.190Z,21.13
2023-05-15T14:23:37.283Z,21.17
2023-05-15T14:26:42.910Z,20.45
2023-05-15T14:29:49.795Z,20.45
2023-05-15T14:32:55.830Z,20.80
2023-05-15T14:36:02.382Z,20.56
2023-05-15T14:39:08.435Z,20.57
2023-05-15T14:42:14.794Z,20.06
2023-05-15T14:45:19.733Z,20.54
2023-05-15T14:48:25.378Z,20.66
2023-05-15T14:51:30.000Z,20.40
2023-05-15T14:54:34.902Z,21.14
2023-05-15T14:57:39.719Z,21.58
2023-05-15T15:00:45.473Z,21.05
2023-05-15T15:03:51.371Z,21.19
2023-05-15T15:06:58.161Z,20.94
2023-05-15T15:10:03.791Z,20.69
2023-05-15T15:13:10.505Z,20.52
2023-05-15T15:16:16.744Z,23.52
2023-05-15T15:19:22.977Z,23.42
2023-05-15T15:22:29.464Z,23.50
2023-05-15T15:25:40.209Z,23.10
2023-05-15T15:32:17.154Z,22.19
2023-05-15T15:35:24.473Z,22.72
2023-05-15T15:38:31.272Z,22.85
2023-05-15T15:41:38.681Z,23.23
2023-05-15T15:44:48.284Z,23.28
2023-05-15T15:48:00.778Z,23.17
2023-05-15T15:51:17.783Z,23.85
2023-05-15T15:54:27.339Z,23.54
2023-05-15T15:57:43.370Z,23.08
2023-05-15T16:01:00.552Z,22.59
2023-05-15T16:04:23.240Z,22.89
2023-05-15T16:07:31.201Z,22.77
2023-05-15T16:10:38.132Z,22.84
2023-05-15T16:13:44.858Z,22.89
2023-05-15T16:16:50.995Z,23.60
2023-05-15T16:19:57.829Z,23.91
2023-05-15T16:22:57.428Z,23.85
2023-05-15T16:25:46.492Z,24.51
2023-05-15T16:28:40.425Z,25.82
2023-05-15T16:31:38.993Z,26.29
2023-05-15T16:34:44.247Z,26.39
2023-05-15T16:37:49.863Z,26.87
2023-05-15T16:40:55.667Z,27.60
2023-05-15T16:44:00.252Z,29.22
2023-05-15T16:47:07.201Z,29.95
2023-05-15T16:50:11.811Z,29.78
2023-05-15T16:53:16.919Z,30.27
2023-05-15T16:56:23.823Z,30.51
2023-05-15T16:59:29.098Z,31.35
2023-05-15T17:02:34.886Z,31.43
2023-05-15T17:05:40.854Z,32.62
2023-05-15T17:08:45.794Z,31.88
2023-05-15T17:11:44.347Z,31.88
2023-05-15T17:14:51.291Z,31.95
2023-05-15T17:17:56.662Z,32.36
2023-05-15T17:21:02.482Z,32.92
2023-05-15T17:24:07.774Z,32.25
2023-05-15T17:27:13.435Z,33.00
2023-05-15T17:30:12.090Z,33.67
2023-05-15T17:33:18.388Z,33.38
2023-05-15T17:36:24.062Z,32.84
2023-05-15T17:39:17.258Z,33.02
2023-05-15T17:42:22.120Z,32.65
2023-05-15T17:45:28.080Z,32.40
2023-05-15T17:48:27.781Z,32.41
2023-05-15T17:51:34.156Z,32.43
2023-05-15T17:54:39.886Z,32.76
2023-05-15T17:57:45.512Z,33.13
2023-05-15T18:00:50.880Z,33.00
2023-05-15T18:03:57.206Z,33.67
2023-05-15T18:07:02.628Z,33.48
2023-05-15T18:10:08.076Z,33.60
2023-05-15T18:13:14.374Z,34.39
2023-05-15T18:16:19.886Z,35.21
2023-05-15T18:19:25.506Z,34.49
2023-05-15T18:22:32.364Z,34.90
2023-05-15T18:25:38.164Z,35.69
2023-05-15T18:28:45.117Z,36.38
2023-05-15T18:31:49.814Z,36.85
2023-05-15T18:34:55.740Z,37.01
2023-05-15T18:38:02.505Z,36.49
2023-05-15T18:41:08.273Z,36.59
2023-05-15T18:44:14.299Z,37.06
2023-05-15T18:47:20.110Z,36.83
2023-05-15T18:50:26.369Z,36.85
2023-05-15T18:53:32.269Z,36.77
2023-05-15T18:56:31.747Z,37.25
2023-05-15T18:59:25.965Z,37.31
2023-05-15T19:02:30.862Z,37.41
2023-05-15T19:05:38.386Z,36.09
2023-05-15T19:08:43.957Z,35.50
2023-05-15T19:11:52.447Z,35.77
2023-05-15T19:14:58.731Z,36.27
2023-05-15T19:18:04.553Z,36.62
2023-05-15T19:21:12.234Z,37.08
2023-05-15T19:24:18.937Z,37.49
2023-05-15T19:27:25.674Z,38.09
2023-05-15T19:30:31.630Z,38.46
2023-05-15T19:33:36.902Z,38.77
2023-05-15T19:36:42.602Z,38.82
2023-05-15T19:39:49.015Z,38.87
2023-05-15T19:42:55.008Z,38.65
2023-05-15T19:46:02.011Z,39.04
2023-05-15T19:49:08.159Z,39.04
2023-05-15T19:52:14.639Z,39.45
2023-05-15T19:55:21.268Z,39.69
2023-05-15T19:58:26.820Z,39.53
2023-05-15T20:01:32.869Z,39.76
2023-05-15T20:04:39.464Z,39.73
2023-05-15T20:07:45.386Z,39.20
2023-05-15T20:10:51.769Z,37.98
2023-05-15T20:13:58.472Z,36.98
2023-05-15T20:17:03.979Z,37.05
2023-05-15T20:20:08.900Z,37.97
2023-05-15T20:23:15.597Z,38.30
2023-05-15T20:26:21.344Z,38.12
2023-05-15T20:29:28.495Z,37.77
2023-05-15T20:32:35.394Z,37.84
2023-05-15T20:35:40.510Z,37.44
2023-05-15T20:38:47.031Z,36.84
2023-05-15T20:41:52.917Z,36.51
2023-05-15T20:44:58.404Z,37.08
2023-05-15T20:48:05.588Z,38.84
2023-05-15T20:51:11.852Z,39.79
2023-05-15T20:54:17.088Z,40.57
2023-05-15T20:57:23.684Z,40.83
2023-05-15T21:00:31.245Z,41.10
2023-05-15T21:03:36.832Z,41.24
2023-05-15T21:06:43.338Z,41.37
2023-05-15T21:09:47.959Z,41.67
2023-05-15T21:12:54.308Z,41.97
2023-05-15T21:15:59.705Z,42.16
2023-05-15T21:19:07.719Z,42.26
2023-05-15T21:22:13.968Z,41.87
2023-05-15T21:25:19.414Z,41.58
2023-05-15T21:28:24.958Z,41.49
2023-05-15T21:31:30.557Z,41.54
2023-05-15T21:34:36.110Z,41.82
2023-05-15T21:37:42.244Z,42.01
2023-05-15T21:40:47.450Z,41.43
2023-05-15T21:43:53.162Z,40.94
2023-05-15T21:46:59.604Z,40.37
2023-05-15T21:50:05.437Z,40.02
2023-05-15T21:53:11.649Z,39.43
2023-05-15T21:56:17.451Z,39.09
2023-05-15T21:59:23.005Z,39.02
2023-05-15T22:02:29.760Z,38.95
2023-05-15T22:05:34.426Z,38.73
2023-05-15T22:08:40.249Z,38.40
2023-05-15T22:11:45.805Z,38.16
2023-05-15T22:14:58.850Z,37.67
2023-05-15T22:18:01.053Z,37.37
2023-05-15T22:21:06.349Z,37.42
2023-05-15T22:24:12.956Z,37.27
2023-05-15T22:27:18.446Z,37.37
2023-05-15T22:30:26.601Z,37.56
2023-05-15T22:33:34.396Z,37.40
2023-05-15T22:36:43.013Z,37.68
2023-05-15T22:39:49.108Z,37.83
2023-05-15T22:42:57.058Z,37.67
2023-05-15T22:46:01.751Z,37.55
2023-05-15T22:49:07.104Z,37.54
2023-05-15T22:52:13.626Z,37.48
2023-05-15T22:55:20.741Z,37.21
2023-05-15T22:58:25.733Z,36.98
2023-05-15T23:01:31.481Z,36.82
2023-05-15T23:04:38.310Z,36.83
2023-05-15T23:07:43.720Z,36.84
2023-05-15T23:10:49.639Z,36.78
2023-05-15T23:13:55.741Z,36.96
2023-05-15T23:17:00.830Z,36.80
2023-05-15T23:20:06.252Z,37.33
2023-05-15T23:23:12.852Z,37.66
2023-05-15T23:26:18.345Z,37.83
2023-05-15T23:29:23.967Z,37.69
2023-05-15T23:32:30.041Z,37.75
2023-05-15T23:35:36.317Z,37.72
2023-05-15T23:38:44.957Z,37.85
2023-05-15T23:41:50.513Z,37.74
2023-05-15T23:44:56.396Z,37.58
2023-05-15T23:48:03.139Z,37.47
2023-05-15T23:51:08.939Z,37.39
2023-05-15T23:54:14.120Z,37.34
2023-05-15T23:57:20.184Z,37.05
